sensor_id;sensor_type;location;lat;lon;timestamp;P1;durP1;ratioP1;P2;durP2;ratioP2
20065;SDS011;10193;48.884;9.182;2023-04-25T00:00:34;1.00;;;1.00;;
20065;SDS011;10193;48.884;9.182;2023-04-25T00:03:00;1.20;;;1.10;;
20065;SDS011;10193;48.884;9.182;2023-04-25T00:05:28;1.13;;;1.13;;
20065;SDS011;10193;48.884;9.182;2023-04-25T00:07:56;1.42;;;1.25;;
20065;SDS011;10193;48.884;9.182;2023-04-25T00:10:23;1.40;;;1.40;;
20065;SDS011;10193;48.884;9.182;2023-04-25T00:12:50;1.27;;;1.17;;
20065;SDS011;10193;48.884;9.182;2023-04-25T00:15:16;1.30;;;1.20;;
20065;SDS011;10193;48.884;9.182;2023-04-25T00:17:43;1.40;;;1.30;;
20065;SDS011;10193;48.884;9.182;2023-04-25T00:20:11;1.50;;;1.40;;
20065;SDS011;10193;48.884;9.182;2023-04-25T00:22:38;1.50;;;1.40;;
20065;SDS011;10193;48.884;9.182;2023-04-25T00:25:06;1.38;;;1.27;;
20065;SDS011;10193;48.884;9.182;2023-04-25T00:27:33;1.45;;;1.35;;
20065;SDS011;10193;48.884;9.182;2023-04-25T00:30:00;1.35;;;1.30;;
20065;SDS011;10193;48.884;9.182;2023-04-25T00:32:27;1.50;;;1.40;;
20065;SDS011;10193;48.884;9.182;2023-04-25T00:34:54;1.17;;;1.17;;
20065;SDS011;10193;48.884;9.182;2023-04-25T00:37:22;1.60;;;1.50;;
20065;SDS011;10193;48.884;9.182;2023-04-25T00:39:49;1.48;;;1.38;;
20065;SDS011;10193;48.884;9.182;2023-04-25T00:42:19;1.60;;;1.50;;
20065;SDS011;10193;48.884;9.182;2023-04-25T00:44:47;1.30;;;1.30;;
20065;SDS011;10193;48.884;9.182;2023-04-25T00:47:14;1.58;;;1.55;;
20065;SDS011;10193;48.884;9.182;2023-04-25T00:49:41;1.98;;;1.42;;
20065;SDS011;10193;48.884;9.182;2023-04-25T00:52:08;1.63;;;1.52;;
20065;SDS011;10193;48.884;9.182;2023-04-25T00:54:35;2.75;;;1.67;;
20065;SDS011;10193;48.884;9.182;2023-04-25T00:57:02;1.80;;;1.70;;
20065;SDS011;10193;48.884;9.182;2023-04-25T00:59:30;1.63;;;1.52;;
20065;SDS011;10193;48.884;9.182;2023-04-25T01:01:57;1.48;;;1.40;;
20065;SDS011;10193;48.884;9.182;2023-04-25T01:04:24;1.55;;;1.48;;
20065;SDS011;10193;48.884;9.182;2023-04-25T01:06:53;1.48;;;1.42;;
20065;SDS011;10193;48.884;9.182;2023-04-25T01:09:20;1.65;;;1.55;;
20065;SDS011;10193;48.884;9.182;2023-04-25T01:11:48;1.60;;;1.50;;
20065;SDS011;10193;48.884;9.182;2023-04-25T01:14:15;1.70;;;1.60;;
20065;SDS011;10193;48.884;9.182;2023-04-25T01:16:43;1.52;;;1.50;;
20065;SDS011;10193;48.884;9.182;2023-04-25T01:19:10;1.65;;;1.55;;
20065;SDS011;10193;48.884;9.182;2023-04-25T01:21:39;1.67;;;1.58;;
20065;SDS011;10193;48.884;9.182;2023-04-25T01:24:06;1.70;;;1.60;;
20065;SDS011;10193;48.884;9.182;2023-04-25T01:26:33;1.63;;;1.52;;
20065;SDS011;10193;48.884;9.182;2023-04-25T01:29:00;1.60;;;1.50;;
20065;SDS011;10193;48.884;9.182;2023-04-25T01:31:27;1.75;;;1.65;;
20065;SDS011;10193;48.884;9.182;2023-04-25T01:33:54;1.52;;;1.50;;
20065;SDS011;10193;48.884;9.182;2023-04-25T01:36:21;1.27;;;1.17;;
20065;SDS011;10193;48.884;9.182;2023-04-25T01:38:49;1.50;;;1.40;;
20065;SDS011;10193;48.884;9.182;2023-04-25T01:41:16;1.60;;;1.50;;
20065;SDS011;10193;48.884;9.182;2023-04-25T01:43:43;1.45;;;1.35;;
20065;SDS011;10193;48.884;9.182;2023-04-25T01:46:10;1.48;;;1.33;;
20065;SDS011;10193;48.884;9.182;2023-04-25T01:48:38;1.40;;;1.30;;
20065;SDS011;10193;48.884;9.182;2023-04-25T01:51:04;1.65;;;1.55;;
20065;SDS011;10193;48.884;9.182;2023-04-25T01:53:31;1.60;;;1.50;;
20065;SDS011;10193;48.884;9.182;2023-04-25T01:55:59;1.60;;;1.50;;
20065;SDS011;10193;48.884;9.182;2023-04-25T01:58:26;1.67;;;1.45;;
20065;SDS011;10193;48.884;9.182;2023-04-25T02:00:52;1.48;;;1.38;;
20065;SDS011;10193;48.884;9.182;2023-04-25T02:03:19;1.55;;;1.45;;
20065;SDS011;10193;48.884;9.182;2023-04-25T02:05:46;1.70;;;1.60;;
20065;SDS011;10193;48.884;9.182;2023-04-25T02:08:12;1.70;;;1.60;;
20065;SDS011;10193;48.884;9.182;2023-04-25T02:10:39;1.80;;;1.70;;
20065;SDS011;10193;48.884;9.182;2023-04-25T02:13:07;1.55;;;1.45;;
20065;SDS011;10193;48.884;9.182;2023-04-25T02:15:34;1.73;;;1.63;;
20065;SDS011;10193;48.884;9.182;2023-04-25T02:18:00;1.90;;;1.80;;
20065;SDS011;10193;48.884;9.182;2023-04-25T02:20:27;1.63;;;1.52;;
20065;SDS011;10193;48.884;9.182;2023-04-25T02:22:55;1.70;;;1.60;;
20065;SDS011;10193;48.884;9.182;2023-04-25T02:25:22;1.60;;;1.50;;
20065;SDS011;10193;48.884;9.182;2023-04-25T02:27:49;1.60;;;1.50;;
20065;SDS011;10193;48.884;9.182;2023-04-25T02:30:17;1.88;;;1.45;;
20065;SDS011;10193;48.884;9.182;2023-04-25T02:32:44;1.80;;;1.70;;
20065;SDS011;10193;48.884;9.182;2023-04-25T02:35:11;2.10;;;1.63;;
20065;SDS011;10193;48.884;9.182;2023-04-25T02:37:38;1.77;;;1.67;;
20065;SDS011;10193;48.884;9.182;2023-04-25T02:40:06;1.77;;;1.67;;
20065;SDS011;10193;48.884;9.182;2023-04-25T02:42:34;1.60;;;1.50;;
20065;SDS011;10193;48.884;9.182;2023-04-25T02:45:01;1.73;;;1.63;;
20065;SDS011;10193;48.884;9.182;2023-04-25T02:47:29;2.40;;;1.80;;
20065;SDS011;10193;48.884;9.182;2023-04-25T02:49:56;1.70;;;1.60;;
20065;SDS011;10193;48.884;9.182;2023-04-25T02:52:22;2.00;;;1.70;;
20065;SDS011;10193;48.884;9.182;2023-04-25T02:54:49;1.50;;;1.40;;
20065;SDS011;10193;48.884;9.182;2023-04-25T02:57:16;1.92;;;1.80;;
20065;SDS011;10193;48.884;9.182;2023-04-25T02:59:43;1.85;;;1.70;;
20065;SDS011;10193;48.884;9.182;2023-04-25T03:02:09;1.60;;;1.50;;
20065;SDS011;10193;48.884;9.182;2023-04-25T03:04:37;1.80;;;1.70;;
20065;SDS011;10193;48.884;9.182;2023-04-25T03:07:04;1.63;;;1.50;;
20065;SDS011;10193;48.884;9.182;2023-04-25T03:09:31;1.55;;;1.48;;
20065;SDS011;10193;48.884;9.182;2023-04-25T03:11:58;1.90;;;1.80;;
20065;SDS011;10193;48.884;9.182;2023-04-25T03:14:25;1.70;;;1.60;;
20065;SDS011;10193;48.884;9.182;2023-04-25T03:16:51;1.67;;;1.58;;
20065;SDS011;10193;48.884;9.182;2023-04-25T03:19:18;1.60;;;1.50;;
20065;SDS011;10193;48.884;9.182;2023-04-25T03:21:46;1.98;;;1.83;;
20065;SDS011;10193;48.884;9.182;2023-04-25T03:24:13;1.55;;;1.45;;
20065;SDS011;10193;48.884;9.182;2023-04-25T03:26:40;2.13;;;1.92;;
20065;SDS011;10193;48.884;9.182;2023-04-25T03:29:07;1.80;;;1.70;;
20065;SDS011;10193;48.884;9.182;2023-04-25T03:31:34;2.00;;;1.80;;
20065;SDS011;10193;48.884;9.182;2023-04-25T03:34:01;2.03;;;1.67;;
20065;SDS011;10193;48.884;9.182;2023-04-25T03:36:27;1.70;;;1.60;;
20065;SDS011;10193;48.884;9.182;2023-04-25T03:38:55;2.13;;;1.88;;
20065;SDS011;10193;48.884;9.182;2023-04-25T03:41:22;1.80;;;1.70;;
20065;SDS011;10193;48.884;9.182;2023-04-25T03:43:49;2.00;;;1.90;;
20065;SDS011;10193;48.884;9.182;2023-04-25T03:46:15;2.55;;;1.90;;
20065;SDS011;10193;48.884;9.182;2023-04-25T03:48:43;2.05;;;1.95;;
20065;SDS011;10193;48.884;9.182;2023-04-25T03:51:10;2.13;;;2.00;;
20065;SDS011;10193;48.884;9.182;2023-04-25T03:53:37;2.63;;;1.95;;
20065;SDS011;10193;48.884;9.182;2023-04-25T03:56:05;2.20;;;2.00;;
20065;SDS011;10193;48.884;9.182;2023-04-25T03:58:32;1.90;;;1.80;;
20065;SDS011;10193;48.884;9.182;2023-04-25T04:00:59;2.15;;;2.05;;
20065;SDS011;10193;48.884;9.182;2023-04-25T04:03:27;2.40;;;2.15;;
20065;SDS011;10193;48.884;9.182;2023-04-25T04:05:54;2.28;;;2.17;;
20065;SDS011;10193;48.884;9.182;2023-04-25T04:08:21;2.50;;;2.30;;
20065;SDS011;10193;48.884;9.182;2023-04-25T04:10:47;2.10;;;1.90;;
20065;SDS011;10193;48.884;9.182;2023-04-25T04:13:15;2.90;;;2.70;;
20065;SDS011;10193;48.884;9.182;2023-04-25T04:15:42;2.55;;;2.35;;
20065;SDS011;10193;48.884;9.182;2023-04-25T04:18:09;2.40;;;2.30;;
20065;SDS011;10193;48.884;9.182;2023-04-25T04:20:35;2.15;;;2.05;;
20065;SDS011;10193;48.884;9.182;2023-04-25T04:23:02;2.40;;;2.20;;
20065;SDS011;10193;48.884;9.182;2023-04-25T04:25:28;2.20;;;2.00;;
20065;SDS011;10193;48.884;9.182;2023-04-25T04:27:55;2.30;;;2.20;;
20065;SDS011;10193;48.884;9.182;2023-04-25T04:30:25;2.60;;;2.40;;
20065;SDS011;10193;48.884;9.182;2023-04-25T04:32:54;2.13;;;1.92;;
20065;SDS011;10193;48.884;9.182;2023-04-25T04:35:21;2.65;;;2.45;;
20065;SDS011;10193;48.884;9.182;2023-04-25T04:37:48;2.20;;;2.10;;
20065;SDS011;10193;48.884;9.182;2023-04-25T04:40:15;2.58;;;2.40;;
20065;SDS011;10193;48.884;9.182;2023-04-25T04:42:43;2.40;;;2.30;;
20065;SDS011;10193;48.884;9.182;2023-04-25T04:45:10;2.63;;;2.42;;
20065;SDS011;10193;48.884;9.182;2023-04-25T04:47:39;2.22;;;2.13;;
20065;SDS011;10193;48.884;9.182;2023-04-25T04:50:06;2.45;;;2.30;;
20065;SDS011;10193;48.884;9.182;2023-04-25T04:52:34;2.67;;;2.47;;
20065;SDS011;10193;48.884;9.182;2023-04-25T04:55:01;2.50;;;2.30;;
20065;SDS011;10193;48.884;9.182;2023-04-25T04:57:28;2.60;;;2.40;;
20065;SDS011;10193;48.884;9.182;2023-04-25T04:59:55;2.45;;;2.35;;
20065;SDS011;10193;48.884;9.182;2023-04-25T05:02:22;2.55;;;2.42;;
20065;SDS011;10193;48.884;9.182;2023-04-25T05:04:50;2.53;;;2.42;;
20065;SDS011;10193;48.884;9.182;2023-04-25T05:07:17;2.67;;;2.47;;
20065;SDS011;10193;48.884;9.182;2023-04-25T05:09:44;2.70;;;2.50;;
20065;SDS011;10193;48.884;9.182;2023-04-25T05:12:10;2.78;;;2.58;;
20065;SDS011;10193;48.884;9.182;2023-04-25T05:14:37;2.80;;;2.60;;
20065;SDS011;10193;48.884;9.182;2023-04-25T05:17:04;2.60;;;2.50;;
20065;SDS011;10193;48.884;9.182;2023-04-25T05:19:33;2.80;;;2.60;;
20065;SDS011;10193;48.884;9.182;2023-04-25T05:22:01;3.15;;;2.85;;
20065;SDS011;10193;48.884;9.182;2023-04-25T05:24:28;2.88;;;2.67;;
20065;SDS011;10193;48.884;9.182;2023-04-25T05:26:55;2.80;;;2.60;;
20065;SDS011;10193;48.884;9.182;2023-04-25T05:29:22;2.65;;;2.45;;
20065;SDS011;10193;48.884;9.182;2023-04-25T05:31:49;2.83;;;2.63;;
20065;SDS011;10193;48.884;9.182;2023-04-25T05:34:15;2.63;;;2.50;;
20065;SDS011;10193;48.884;9.182;2023-04-25T05:36:42;2.80;;;2.60;;
20065;SDS011;10193;48.884;9.182;2023-04-25T05:39:10;2.75;;;2.55;;
20065;SDS011;10193;48.884;9.182;2023-04-25T05:41:37;3.00;;;2.80;;
20065;SDS011;10193;48.884;9.182;2023-04-25T05:44:04;2.60;;;2.40;;
20065;SDS011;10193;48.884;9.182;2023-04-25T05:46:31;2.78;;;2.58;;
20065;SDS011;10193;48.884;9.182;2023-04-25T05:48:58;2.83;;;2.60;;
20065;SDS011;10193;48.884;9.182;2023-04-25T05:51:24;2.58;;;2.38;;
20065;SDS011;10193;48.884;9.182;2023-04-25T05:53:52;2.70;;;2.50;;
20065;SDS011;10193;48.884;9.182;2023-04-25T05:56:20;2.67;;;2.47;;
20065;SDS011;10193;48.884;9.182;2023-04-25T05:58:47;2.70;;;2.50;;
20065;SDS011;10193;48.884;9.182;2023-04-25T06:01:13;2.47;;;2.28;;
20065;SDS011;10193;48.884;9.182;2023-04-25T06:03:40;2.40;;;2.20;;
20065;SDS011;10193;48.884;9.182;2023-04-25T06:06:08;2.40;;;2.30;;
20065;SDS011;10193;48.884;9.182;2023-04-25T06:08:35;2.30;;;2.15;;
20065;SDS011;10193;48.884;9.182;2023-04-25T06:11:02;2.65;;;2.45;;
20065;SDS011;10193;48.884;9.182;2023-04-25T06:13:30;2.60;;;2.50;;
20065;SDS011;10193;48.884;9.182;2023-04-25T06:15:57;2.60;;;2.40;;
20065;SDS011;10193;48.884;9.182;2023-04-25T06:18:24;2.53;;;2.33;;
20065;SDS011;10193;48.884;9.182;2023-04-25T06:20:50;2.38;;;2.17;;
20065;SDS011;10193;48.884;9.182;2023-04-25T06:23:17;2.65;;;2.45;;
20065;SDS011;10193;48.884;9.182;2023-04-25T06:25:44;2.65;;;2.45;;
20065;SDS011;10193;48.884;9.182;2023-04-25T06:28:11;2.58;;;2.38;;
20065;SDS011;10193;48.884;9.182;2023-04-25T06:30:39;2.55;;;2.35;;
20065;SDS011;10193;48.884;9.182;2023-04-25T06:33:05;2.63;;;2.42;;
20065;SDS011;10193;48.884;9.182;2023-04-25T06:35:33;2.60;;;2.42;;
20065;SDS011;10193;48.884;9.182;2023-04-25T06:38:00;2.67;;;2.47;;
20065;SDS011;10193;48.884;9.182;2023-04-25T06:40:26;2.50;;;2.40;;
20065;SDS011;10193;48.884;9.182;2023-04-25T06:42:53;2.63;;;2.42;;
20065;SDS011;10193;48.884;9.182;2023-04-25T06:45:20;2.70;;;2.50;;
20065;SDS011;10193;48.884;9.182;2023-04-25T06:47:48;2.45;;;2.35;;
20065;SDS011;10193;48.884;9.182;2023-04-25T06:50:14;2.33;;;2.22;;
20065;SDS011;10193;48.884;9.182;2023-04-25T06:52:41;2.67;;;2.47;;
20065;SDS011;10193;48.884;9.182;2023-04-25T06:55:08;2.45;;;2.35;;
20065;SDS011;10193;48.884;9.182;2023-04-25T06:57:35;2.40;;;2.20;;
20065;SDS011;10193;48.884;9.182;2023-04-25T07:00:02;2.65;;;2.45;;
20065;SDS011;10193;48.884;9.182;2023-04-25T07:02:33;2.17;;;2.08;;
20065;SDS011;10193;48.884;9.182;2023-04-25T07:05:01;2.95;;;2.28;;
20065;SDS011;10193;48.884;9.182;2023-04-25T07:07:29;2.50;;;2.40;;
20065;SDS011;10193;48.884;9.182;2023-04-25T07:09:55;2.45;;;2.35;;
20065;SDS011;10193;48.884;9.182;2023-04-25T07:12:22;2.90;;;2.70;;
20065;SDS011;10193;48.884;9.182;2023-04-25T07:14:49;2.45;;;2.35;;
20065;SDS011;10193;48.884;9.182;2023-04-25T07:17:15;2.83;;;2.63;;
20065;SDS011;10193;48.884;9.182;2023-04-25T07:19:42;2.78;;;2.58;;
20065;SDS011;10193;48.884;9.182;2023-04-25T07:22:10;2.70;;;2.50;;
20065;SDS011;10193;48.884;9.182;2023-04-25T07:24:36;3.03;;;2.83;;
20065;SDS011;10193;48.884;9.182;2023-04-25T07:27:03;2.72;;;2.47;;
20065;SDS011;10193;48.884;9.182;2023-04-25T07:29:30;2.88;;;2.67;;
20065;SDS011;10193;48.884;9.182;2023-04-25T07:31:57;2.80;;;2.60;;
20065;SDS011;10193;48.884;9.182;2023-04-25T07:34:23;3.22;;;2.80;;
20065;SDS011;10193;48.884;9.182;2023-04-25T07:36:50;2.80;;;2.60;;
20065;SDS011;10193;48.884;9.182;2023-04-25T07:39:18;2.78;;;2.58;;
20065;SDS011;10193;48.884;9.182;2023-04-25T07:41:45;2.88;;;2.67;;
20065;SDS011;10193;48.884;9.182;2023-04-25T07:44:12;3.15;;;2.95;;
20065;SDS011;10193;48.884;9.182;2023-04-25T07:46:38;3.30;;;2.75;;
20065;SDS011;10193;48.884;9.182;2023-04-25T07:49:05;2.80;;;2.60;;
20065;SDS011;10193;48.884;9.182;2023-04-25T07:51:32;3.10;;;2.88;;
20065;SDS011;10193;48.884;9.182;2023-04-25T07:53:58;3.40;;;3.20;;
20065;SDS011;10193;48.884;9.182;2023-04-25T07:56:27;3.10;;;2.90;;
20065;SDS011;10193;48.884;9.182;2023-04-25T07:58:53;2.90;;;2.80;;
20065;SDS011;10193;48.884;9.182;2023-04-25T08:01:20;3.05;;;2.85;;
20065;SDS011;10193;48.884;9.182;2023-04-25T08:03:47;4.22;;;3.28;;
20065;SDS011;10193;48.884;9.182;2023-04-25T08:06:13;3.03;;;2.83;;
20065;SDS011;10193;48.884;9.182;2023-04-25T08:08:40;3.10;;;2.90;;
20065;SDS011;10193;48.884;9.182;2023-04-25T08:11:06;3.30;;;3.00;;
20065;SDS011;10193;48.884;9.182;2023-04-25T08:13:34;3.03;;;2.83;;
20065;SDS011;10193;48.884;9.182;2023-04-25T08:16:01;3.30;;;3.08;;
20065;SDS011;10193;48.884;9.182;2023-04-25T08:18:28;3.38;;;3.13;;
20065;SDS011;10193;48.884;9.182;2023-04-25T08:20:55;3.72;;;3.42;;
20065;SDS011;10193;48.884;9.182;2023-04-25T08:23:22;3.60;;;3.30;;
20065;SDS011;10193;48.884;9.182;2023-04-25T08:25:49;3.50;;;3.20;;
20065;SDS011;10193;48.884;9.182;2023-04-25T08:28:15;3.35;;;3.08;;
20065;SDS011;10193;48.884;9.182;2023-04-25T08:30:43;3.70;;;3.40;;
20065;SDS011;10193;48.884;9.182;2023-04-25T08:33:10;3.63;;;3.33;;
20065;SDS011;10193;48.884;9.182;2023-04-25T08:35:37;3.53;;;3.22;;
20065;SDS011;10193;48.884;9.182;2023-04-25T08:38:03;3.50;;;3.20;;
20065;SDS011;10193;48.884;9.182;2023-04-25T08:40:30;3.20;;;3.00;;
20065;SDS011;10193;48.884;9.182;2023-04-25T08:43:03;3.10;;;2.90;;
20065;SDS011;10193;48.884;9.182;2023-04-25T08:45:36;3.40;;;3.20;;
20065;SDS011;10193;48.884;9.182;2023-04-25T08:48:06;3.20;;;2.90;;
20065;SDS011;10193;48.884;9.182;2023-04-25T08:50:36;3.03;;;2.83;;
20065;SDS011;10193;48.884;9.182;2023-04-25T08:53:05;3.42;;;3.22;;
20065;SDS011;10193;48.884;9.182;2023-04-25T08:55:37;3.35;;;3.15;;
20065;SDS011;10193;48.884;9.182;2023-04-25T08:58:07;3.42;;;3.13;;
20065;SDS011;10193;48.884;9.182;2023-04-25T09:00:36;3.63;;;3.00;;
20065;SDS011;10193;48.884;9.182;2023-04-25T09:03:02;3.50;;;3.22;;
20065;SDS011;10193;48.884;9.182;2023-04-25T09:05:30;3.65;;;3.35;;
20065;SDS011;10193;48.884;9.182;2023-04-25T09:07:58;3.80;;;3.50;;
20065;SDS011;10193;48.884;9.182;2023-04-25T09:10:26;3.97;;;3.67;;
20065;SDS011;10193;48.884;9.182;2023-04-25T09:13:01;4.32;;;3.92;;
20065;SDS011;10193;48.884;9.182;2023-04-25T09:15:29;3.95;;;3.65;;
20065;SDS011;10193;48.884;9.182;2023-04-25T09:17:56;4.15;;;3.85;;
20065;SDS011;10193;48.884;9.182;2023-04-25T09:20:23;3.97;;;3.67;;
20065;SDS011;10193;48.884;9.182;2023-04-25T09:23:02;3.83;;;3.53;;
20065;SDS011;10193;48.884;9.182;2023-04-25T09:25:33;3.58;;;3.33;;
20065;SDS011;10193;48.884;9.182;2023-04-25T09:28:04;3.55;;;3.35;;
20065;SDS011;10193;48.884;9.182;2023-04-25T09:30:32;3.80;;;3.53;;
20065;SDS011;10193;48.884;9.182;2023-04-25T09:33:04;3.50;;;3.30;;
20065;SDS011;10193;48.884;9.182;2023-04-25T09:35:35;4.05;;;3.75;;
20065;SDS011;10193;48.884;9.182;2023-04-25T09:38:08;4.03;;;3.70;;
20065;SDS011;10193;48.884;9.182;2023-04-25T09:40:38;3.92;;;3.63;;
20065;SDS011;10193;48.884;9.182;2023-04-25T09:43:08;4.07;;;3.78;;
20065;SDS011;10193;48.884;9.182;2023-04-25T09:45:40;4.10;;;3.80;;
20065;SDS011;10193;48.884;9.182;2023-04-25T09:48:10;4.47;;;4.10;;
20065;SDS011;10193;48.884;9.182;2023-04-25T09:50:37;4.35;;;4.05;;
20065;SDS011;10193;48.884;9.182;2023-04-25T09:53:05;3.97;;;3.67;;
20065;SDS011;10193;48.884;9.182;2023-04-25T09:55:33;3.90;;;3.60;;
20065;SDS011;10193;48.884;9.182;2023-04-25T09:58:02;4.28;;;3.97;;
20065;SDS011;10193;48.884;9.182;2023-04-25T10:00:32;4.35;;;3.95;;
20065;SDS011;10193;48.884;9.182;2023-04-25T10:02:59;4.05;;;3.72;;
20065;SDS011;10193;48.884;9.182;2023-04-25T10:05:29;4.05;;;3.58;;
20065;SDS011;10193;48.884;9.182;2023-04-25T10:07:58;3.83;;;3.40;;
20065;SDS011;10193;48.884;9.182;2023-04-25T10:10:28;3.60;;;3.30;;
20065;SDS011;10193;48.884;9.182;2023-04-25T10:13:02;3.17;;;2.97;;
20065;SDS011;10193;48.884;9.182;2023-04-25T10:15:30;3.55;;;3.28;;
20065;SDS011;10193;48.884;9.182;2023-04-25T10:17:57;3.17;;;2.88;;
20065;SDS011;10193;48.884;9.182;2023-04-25T10:20:25;3.13;;;2.88;;
20065;SDS011;10193;48.884;9.182;2023-04-25T10:22:52;3.10;;;2.90;;
20065;SDS011;10193;48.884;9.182;2023-04-25T10:25:22;3.35;;;3.13;;
20065;SDS011;10193;48.884;9.182;2023-04-25T10:27:49;2.40;;;2.20;;
20065;SDS011;10193;48.884;9.182;2023-04-25T10:30:18;2.67;;;2.47;;
20065;SDS011;10193;48.884;9.182;2023-04-25T10:32:45;2.40;;;2.30;;
20065;SDS011;10193;48.884;9.182;2023-04-25T10:35:15;2.90;;;2.70;;
20065;SDS011;10193;48.884;9.182;2023-04-25T10:38:03;3.35;;;2.90;;
20065;SDS011;10193;48.884;9.182;2023-04-25T10:40:30;3.17;;;2.70;;
20065;SDS011;10193;48.884;9.182;2023-04-25T10:46:03;3.22;;;3.03;;
20065;SDS011;10193;48.884;9.182;2023-04-25T10:48:43;3.20;;;2.72;;
20065;SDS011;10193;48.884;9.182;2023-04-25T10:51:15;2.88;;;2.65;;
20065;SDS011;10193;48.884;9.182;2023-04-25T10:53:43;2.70;;;2.60;;
20065;SDS011;10193;48.884;9.182;2023-04-25T10:56:10;2.90;;;2.70;;
20065;SDS011;10193;48.884;9.182;2023-04-25T10:58:41;10.52;;;2.85;;
20065;SDS011;10193;48.884;9.182;2023-04-25T11:01:10;3.10;;;2.90;;
20065;SDS011;10193;48.884;9.182;2023-04-25T11:03:38;3.42;;;3.22;;
20065;SDS011;10193;48.884;9.182;2023-04-25T11:06:07;3.45;;;3.17;;
20065;SDS011;10193;48.884;9.182;2023-04-25T11:08:47;3.30;;;3.10;;
20065;SDS011;10193;48.884;9.182;2023-04-25T11:11:15;3.13;;;2.92;;
20065;SDS011;10193;48.884;9.182;2023-04-25T11:13:42;2.92;;;2.72;;
20065;SDS011;10193;48.884;9.182;2023-04-25T11:16:10;2.90;;;2.70;;
20065;SDS011;10193;48.884;9.182;2023-04-25T11:18:36;3.00;;;2.80;;
20065;SDS011;10193;48.884;9.182;2023-04-25T11:21:03;2.97;;;2.78;;
20065;SDS011;10193;48.884;9.182;2023-04-25T11:23:31;3.40;;;2.80;;
20065;SDS011;10193;48.884;9.182;2023-04-25T11:25:58;3.03;;;2.83;;
20065;SDS011;10193;48.884;9.182;2023-04-25T11:28:26;2.97;;;2.78;;
20065;SDS011;10193;48.884;9.182;2023-04-25T11:30:53;3.03;;;2.83;;
20065;SDS011;10193;48.884;9.182;2023-04-25T11:33:23;3.30;;;3.00;;
20065;SDS011;10193;48.884;9.182;2023-04-25T11:35:52;3.03;;;2.72;;
20065;SDS011;10193;48.884;9.182;2023-04-25T11:38:20;3.17;;;2.97;;
20065;SDS011;10193;48.884;9.182;2023-04-25T11:40:49;3.38;;;3.17;;
20065;SDS011;10193;48.884;9.182;2023-04-25T11:43:17;3.10;;;2.90;;
20065;SDS011;10193;48.884;9.182;2023-04-25T11:45:46;3.03;;;2.83;;
20065;SDS011;10193;48.884;9.182;2023-04-25T11:48:13;3.13;;;2.92;;
20065;SDS011;10193;48.884;9.182;2023-04-25T11:50:42;3.10;;;2.90;;
20065;SDS011;10193;48.884;9.182;2023-04-25T11:53:09;3.33;;;3.13;;
20065;SDS011;10193;48.884;9.182;2023-04-25T11:55:36;3.58;;;3.28;;
20065;SDS011;10193;48.884;9.182;2023-04-25T11:58:04;3.60;;;3.30;;
20065;SDS011;10193;48.884;9.182;2023-04-25T12:00:31;3.30;;;3.03;;
20065;SDS011;10193;48.884;9.182;2023-04-25T12:02:58;3.33;;;3.10;;
20065;SDS011;10193;48.884;9.182;2023-04-25T12:05:25;3.08;;;2.88;;
20065;SDS011;10193;48.884;9.182;2023-04-25T12:07:55;3.25;;;2.97;;
20065;SDS011;10193;48.884;9.182;2023-04-25T12:10:23;3.00;;;2.80;;
20065;SDS011;10193;48.884;9.182;2023-04-25T12:12:50;3.10;;;2.90;;
20065;SDS011;10193;48.884;9.182;2023-04-25T12:15:17;3.42;;;3.22;;
20065;SDS011;10193;48.884;9.182;2023-04-25T12:17:50;3.85;;;3.55;;
20065;SDS011;10193;48.884;9.182;2023-04-25T12:20:18;4.15;;;3.70;;
20065;SDS011;10193;48.884;9.182;2023-04-25T12:22:48;4.60;;;4.07;;
20065;SDS011;10193;48.884;9.182;2023-04-25T12:28:13;4.13;;;3.83;;
20065;SDS011;10193;48.884;9.182;2023-04-25T12:30:53;4.13;;;3.83;;
20065;SDS011;10193;48.884;9.182;2023-04-25T12:33:21;4.63;;;4.22;;
20065;SDS011;10193;48.884;9.182;2023-04-25T12:35:47;4.63;;;4.22;;
20065;SDS011;10193;48.884;9.182;2023-04-25T12:38:20;4.65;;;4.20;;
20065;SDS011;10193;48.884;9.182;2023-04-25T12:40:49;4.20;;;3.90;;
20065;SDS011;10193;48.884;9.182;2023-04-25T12:43:15;4.82;;;4.43;;
20065;SDS011;10193;48.884;9.182;2023-04-25T12:45:42;5.55;;;4.38;;
20065;SDS011;10193;48.884;9.182;2023-04-25T12:48:09;5.10;;;4.60;;
20065;SDS011;10193;48.884;9.182;2023-04-25T12:50:36;4.90;;;4.50;;
20065;SDS011;10193;48.884;9.182;2023-04-25T12:53:02;5.28;;;4.80;;
20065;SDS011;10193;48.884;9.182;2023-04-25T12:55:29;5.00;;;4.60;;
20065;SDS011;10193;48.884;9.182;2023-04-25T12:57:57;5.07;;;4.68;;
20065;SDS011;10193;48.884;9.182;2023-04-25T13:00:23;5.22;;;4.65;;
20065;SDS011;10193;48.884;9.182;2023-04-25T13:02:51;5.47;;;4.97;;
20065;SDS011;10193;48.884;9.182;2023-04-25T13:05:18;5.45;;;5.00;;
20065;SDS011;10193;48.884;9.182;2023-04-25T13:07:44;5.53;;;5.00;;
20065;SDS011;10193;48.884;9.182;2023-04-25T13:10:11;5.88;;;5.38;;
20065;SDS011;10193;48.884;9.182;2023-04-25T13:12:38;6.07;;;5.47;;
20065;SDS011;10193;48.884;9.182;2023-04-25T13:15:06;6.05;;;5.45;;
20065;SDS011;10193;48.884;9.182;2023-04-25T13:17:36;6.70;;;5.88;;
20065;SDS011;10193;48.884;9.182;2023-04-25T13:20:03;6.53;;;5.95;;
20065;SDS011;10193;48.884;9.182;2023-04-25T13:22:31;6.75;;;6.05;;
20065;SDS011;10193;48.884;9.182;2023-04-25T13:24:57;6.57;;;5.95;;
20065;SDS011;10193;48.884;9.182;2023-04-25T13:27:24;7.07;;;6.15;;
20065;SDS011;10193;48.884;9.182;2023-04-25T13:29:51;7.05;;;6.35;;
20065;SDS011;10193;48.884;9.182;2023-04-25T13:32:19;7.18;;;6.47;;
20065;SDS011;10193;48.884;9.182;2023-04-25T13:34:45;7.30;;;6.60;;
20065;SDS011;10193;48.884;9.182;2023-04-25T13:37:12;7.28;;;6.57;;
20065;SDS011;10193;48.884;9.182;2023-04-25T13:39:39;7.50;;;6.72;;
20065;SDS011;10193;48.884;9.182;2023-04-25T13:42:06;7.18;;;6.47;;
20065;SDS011;10193;48.884;9.182;2023-04-25T13:44:32;7.35;;;6.65;;
20065;SDS011;10193;48.884;9.182;2023-04-25T13:46:59;7.40;;;6.70;;
20065;SDS011;10193;48.884;9.182;2023-04-25T13:49:27;7.13;;;6.47;;
20065;SDS011;10193;48.884;9.182;2023-04-25T13:51:54;7.18;;;6.47;;
20065;SDS011;10193;48.884;9.182;2023-04-25T13:54:20;7.07;;;6.38;;
20065;SDS011;10193;48.884;9.182;2023-04-25T13:56:47;7.00;;;6.35;;
20065;SDS011;10193;48.884;9.182;2023-04-25T13:59:15;7.35;;;6.65;;
20065;SDS011;10193;48.884;9.182;2023-04-25T14:01:42;7.20;;;6.20;;
20065;SDS011;10193;48.884;9.182;2023-04-25T14:04:08;6.90;;;6.30;;
20065;SDS011;10193;48.884;9.182;2023-04-25T14:06:36;6.90;;;6.30;;
20065;SDS011;10193;48.884;9.182;2023-04-25T14:09:04;6.45;;;5.85;;
20065;SDS011;10193;48.884;9.182;2023-04-25T14:11:32;6.47;;;5.78;;
20065;SDS011;10193;48.884;9.182;2023-04-25T14:13:59;6.13;;;5.60;;
20065;SDS011;10193;48.884;9.182;2023-04-25T14:16:25;5.90;;;5.43;;
20065;SDS011;10193;48.884;9.182;2023-04-25T14:18:52;6.20;;;5.60;;
20065;SDS011;10193;48.884;9.182;2023-04-25T14:21:19;6.05;;;5.43;;
20065;SDS011;10193;48.884;9.182;2023-04-25T14:23:47;5.85;;;5.38;;
20065;SDS011;10193;48.884;9.182;2023-04-25T14:26:14;5.60;;;5.10;;
20065;SDS011;10193;48.884;9.182;2023-04-25T14:28:41;5.80;;;5.30;;
20065;SDS011;10193;48.884;9.182;2023-04-25T14:31:08;5.85;;;5.35;;
20065;SDS011;10193;48.884;9.182;2023-04-25T14:33:35;5.68;;;5.05;;
20065;SDS011;10193;48.884;9.182;2023-04-25T14:36:04;5.90;;;5.40;;
20065;SDS011;10193;48.884;9.182;2023-04-25T14:38:31;5.85;;;5.35;;
20065;SDS011;10193;48.884;9.182;2023-04-25T14:40:59;5.90;;;5.40;;
20065;SDS011;10193;48.884;9.182;2023-04-25T14:43:26;5.85;;;5.35;;
20065;SDS011;10193;48.884;9.182;2023-04-25T14:45:53;6.40;;;5.80;;
20065;SDS011;10193;48.884;9.182;2023-04-25T14:48:19;6.25;;;5.68;;
20065;SDS011;10193;48.884;9.182;2023-04-25T14:50:46;6.15;;;5.55;;
20065;SDS011;10193;48.884;9.182;2023-04-25T14:53:13;6.28;;;5.68;;
20065;SDS011;10193;48.884;9.182;2023-04-25T14:55:40;5.85;;;5.35;;